createdAt,value
2023-03-02T00:03:01.971Z,2.83
2023-03-02T00:06:44.405Z,2.90
2023-03-02T00:10:26.703Z,3.00
2023-03-02T00:14:08.462Z,3.25
2023-03-02T00:17:50.229Z,2.80
2023-03-02T00:21:32.309Z,2.92
2023-03-02T00:25:15.373Z,2.90
2023-03-02T00:28:57.682Z,2.92
2023-03-02T00:32:40.142Z,5.50
2023-03-02T00:36:23.218Z,3.25
2023-03-02T00:40:09.437Z,2.92
2023-03-02T00:43:52.553Z,3.63
2023-03-02T00:47:35.778Z,4.07
2023-03-02T00:51:18.365Z,3.00
2023-03-02T00:55:00.100Z,3.15
2023-03-02T00:58:41.859Z,3.13
2023-03-02T01:02:23.672Z,3.38
2023-03-02T01:06:06.570Z,3.10
2023-03-02T01:09:51.279Z,3.28
2023-03-02T01:13:33.005Z,3.40
2023-03-02T01:17:15.953Z,3.67
2023-03-02T01:21:06.665Z,3.58
2023-03-02T01:24:48.873Z,4.10
2023-03-02T01:28:30.631Z,4.57
2023-03-02T01:32:12.422Z,4.18
2023-03-02T01:35:54.165Z,4.55
2023-03-02T01:39:35.884Z,5.00
2023-03-02T01:43:17.759Z,4.35
2023-03-02T01:46:59.615Z,4.47
2023-03-02T01:50:41.569Z,4.00
2023-03-02T01:54:23.856Z,4.03
2023-03-02T01:58:06.712Z,3.92
2023-03-02T02:01:53.200Z,4.30
2023-03-02T02:05:37.781Z,3.85
2023-03-02T02:09:22.876Z,3.90
2023-03-02T02:13:04.844Z,4.10
2023-03-02T02:16:46.946Z,4.00
2023-03-02T02:20:42.005Z,3.88
2023-03-02T02:24:39.746Z,3.83
2023-03-02T02:28:43.675Z,4.03
2023-03-02T02:32:32.841Z,3.90
2023-03-02T02:36:25.214Z,4.20
2023-03-02T02:40:31.270Z,3.88
2023-03-02T02:44:17.150Z,4.60
2023-03-02T02:47:58.902Z,4.32
2023-03-02T02:51:41.127Z,4.25
2023-03-02T02:55:24.610Z,4.22
2023-03-02T02:59:11.813Z,4.50
2023-03-02T03:03:08.115Z,4.87
2023-03-02T03:06:58.422Z,4.75
2023-03-02T03:10:42.527Z,4.32
2023-03-02T03:14:34.245Z,4.82
2023-03-02T03:18:24.319Z,4.63
2023-03-02T03:22:06.194Z,4.75
2023-03-02T03:25:47.997Z,4.50
2023-03-02T03:29:32.764Z,5.10
2023-03-02T03:33:14.446Z,4.88
2023-03-02T03:37:01.701Z,4.82
2023-03-02T03:40:43.792Z,5.32
2023-03-02T03:44:25.605Z,5.35
2023-03-02T03:48:07.332Z,5.57
2023-03-02T03:51:49.096Z,6.38
2023-03-02T03:55:31.328Z,6.60
2023-03-02T03:59:16.863Z,6.60
2023-03-02T04:02:58.655Z,6.20
2023-03-02T04:06:40.880Z,6.50
2023-03-02T04:10:22.675Z,6.90
2023-03-02T04:14:05.668Z,6.75
2023-03-02T04:17:47.491Z,6.82
2023-03-02T04:21:29.547Z,6.78
2023-03-02T04:25:12.457Z,6.05
2023-03-02T04:28:54.249Z,6.22
2023-03-02T04:32:35.978Z,6.55
2023-03-02T04:36:19.547Z,6.80
2023-03-02T04:40:01.261Z,6.78
2023-03-02T04:43:43.344Z,7.07
2023-03-02T04:47:25.157Z,6.07
2023-03-02T04:51:07.001Z,5.63
2023-03-02T04:54:48.783Z,6.15
2023-03-02T04:58:30.955Z,6.05
2023-03-02T05:02:12.825Z,5.63
2023-03-02T05:05:54.681Z,5.63
2023-03-02T05:09:36.473Z,5.60
2023-03-02T05:13:18.219Z,6.40
2023-03-02T05:16:59.947Z,5.63
2023-03-02T05:20:41.743Z,5.50
2023-03-02T05:24:23.685Z,5.47
2023-03-02T05:28:06.302Z,4.40
2023-03-02T05:31:48.595Z,4.43
2023-03-02T05:35:30.579Z,4.25
2023-03-02T05:39:12.720Z,4.20
2023-03-02T05:42:54.513Z,3.92
2023-03-02T05:46:36.728Z,4.00
2023-03-02T05:50:19.140Z,3.45
2023-03-02T05:54:00.966Z,3.40
2023-03-02T05:57:42.740Z,2.92
2023-03-02T06:01:24.494Z,2.80
2023-03-02T06:05:08.968Z,2.95
2023-03-02T06:08:50.687Z,2.75
2023-03-02T06:12:33.235Z,2.88
2023-03-02T06:16:15.012Z,3.35
2023-03-02T06:19:56.844Z,4.47
2023-03-02T06:23:38.678Z,4.57
2023-03-02T06:27:20.589Z,4.70
2023-03-02T06:31:02.299Z,5.15
2023-03-02T06:34:44.362Z,5.13
2023-03-02T06:38:26.239Z,4.82
2023-03-02T06:42:07.973Z,5.10
2023-03-02T06:45:51.031Z,5.15
2023-03-02T06:49:32.779Z,5.10
2023-03-02T06:53:15.212Z,4.88
2023-03-02T06:56:57.771Z,4.90
2023-03-02T07:00:40.151Z,4.85
2023-03-02T07:04:21.890Z,4.88
2023-03-02T07:08:03.951Z,4.75
2023-03-02T07:11:45.749Z,5.05
2023-03-02T07:15:27.683Z,4.60
2023-03-02T07:19:13.804Z,5.50
2023-03-02T07:22:55.588Z,4.93
2023-03-02T07:26:37.340Z,5.10
2023-03-02T07:30:22.367Z,5.00
2023-03-02T07:34:04.142Z,5.80
2023-03-02T07:37:45.871Z,5.88
2023-03-02T07:41:27.633Z,5.60
2023-03-02T07:45:11.112Z,5.55
2023-03-02T07:48:53.949Z,5.88
2023-03-02T07:52:35.755Z,5.80
2023-03-02T07:56:18.030Z,5.60
2023-03-02T07:59:59.809Z,6.25
2023-03-02T08:03:41.493Z,6.22
2023-03-02T08:07:23.285Z,6.85
2023-03-02T08:11:07.001Z,7.25
2023-03-02T08:14:48.835Z,7.60
2023-03-02T08:18:31.057Z,7.88
2023-03-02T08:22:13.027Z,7.78
2023-03-02T08:25:55.548Z,7.03
2023-03-02T08:29:37.266Z,8.65
2023-03-02T08:33:18.982Z,7.97
2023-03-02T08:37:00.721Z,9.23
2023-03-02T08:40:42.422Z,9.02
2023-03-02T08:44:24.242Z,8.63
2023-03-02T08:48:06.198Z,9.88
2023-03-02T08:51:53.374Z,9.77
2023-03-02T08:55:36.775Z,9.53
2023-03-02T08:59:18.650Z,10.50
2023-03-02T09:03:02.210Z,11.07
2023-03-02T09:06:45.497Z,11.63
2023-03-02T09:10:27.325Z,12.20
2023-03-02T09:14:09.601Z,11.52
2023-03-02T09:17:51.450Z,10.65
2023-03-02T09:21:33.514Z,10.23
2023-03-02T09:25:15.829Z,11.90
2023-03-02T09:28:57.785Z,11.68
2023-03-02T09:32:39.914Z,11.60
2023-03-02T09:36:24.381Z,12.10
2023-03-02T09:40:18.517Z,11.95
2023-03-02T09:44:22.984Z,12.32
2023-03-02T09:48:16.578Z,12.00
2023-03-02T09:52:16.413Z,12.25
2023-03-02T09:56:00.446Z,11.95
2023-03-02T09:59:47.330Z,12.18
2023-03-02T10:03:40.261Z,12.82
2023-03-02T10:07:29.607Z,12.75
2023-03-02T10:11:33.332Z,12.27
2023-03-02T10:15:25.977Z,12.18
2023-03-02T10:19:33.156Z,12.25
2023-03-02T10:23:39.029Z,13.10
2023-03-02T10:27:35.532Z,12.90
2023-03-02T10:31:28.030Z,12.55
2023-03-02T10:35:21.041Z,12.10
2023-03-02T10:39:06.660Z,12.18
2023-03-02T10:42:49.155Z,13.73
2023-03-02T10:46:45.425Z,13.32
2023-03-02T10:50:27.276Z,11.90
2023-03-02T10:54:12.976Z,12.98
2023-03-02T10:58:01.076Z,13.43
2023-03-02T11:05:35.274Z,12.68
2023-03-02T11:09:16.988Z,12.07
2023-03-02T11:13:01.166Z,12.63
2023-03-02T11:16:42.991Z,12.65
2023-03-02T11:20:29.756Z,13.85
2023-03-02T11:24:31.800Z,13.43
2023-03-02T11:28:21.725Z,12.40
2023-03-02T11:32:15.661Z,13.25
2023-03-02T11:36:25.720Z,13.52
2023-03-02T11:40:22.624Z,13.38
2023-03-02T11:44:18.646Z,11.88
2023-03-02T11:48:08.778Z,12.25
2023-03-02T11:52:00.194Z,12.98
2023-03-02T11:55:50.886Z,13.18
2023-03-02T11:59:35.508Z,13.52
2023-03-02T12:03:17.269Z,13.00
2023-03-02T12:07:01.997Z,13.93
2023-03-02T12:11:03.754Z,13.23
2023-03-02T12:14:45.732Z,12.25
2023-03-02T12:18:30.113Z,12.23
2023-03-02T12:22:14.607Z,12.18
2023-03-02T12:26:08.977Z,13.07
2023-03-02T12:29:56.575Z,11.98
2023-03-02T12:33:43.403Z,13.20
2023-03-02T12:37:31.721Z,12.52
2023-03-02T12:41:22.154Z,11.73
2023-03-02T12:45:15.369Z,12.30
2023-03-02T12:49:22.138Z,10.60
2023-03-02T12:53:06.613Z,11.95
2023-03-02T12:56:49.035Z,11.27
2023-03-02T13:00:33.710Z,10.95
2023-03-02T13:04:26.515Z,11.98
2023-03-02T13:08:28.679Z,11.07
2023-03-02T13:12:14.376Z,10.88
2023-03-02T13:16:02.444Z,14.55
2023-03-02T13:19:44.225Z,11.68
2023-03-02T13:23:27.681Z,11.85
2023-03-02T13:27:35.476Z,11.88
2023-03-02T13:31:23.747Z,12.20
2023-03-02T13:35:17.303Z,11.82
2023-03-02T13:39:00.169Z,12.43
2023-03-02T13:42:41.954Z,11.38
2023-03-02T13:46:27.466Z,12.30
2023-03-02T13:50:10.119Z,11.65
2023-03-02T13:54:00.443Z,10.95
2023-03-02T13:57:45.247Z,11.63
2023-03-02T14:01:28.587Z,11.70
2023-03-02T14:05:20.780Z,11.77
2023-03-02T14:09:02.730Z,11.15
2023-03-02T14:12:56.082Z,11.48
2023-03-02T14:16:37.905Z,11.38
2023-03-02T14:20:20.665Z,11.07
2023-03-02T14:24:02.377Z,10.95
2023-03-02T14:27:44.501Z,10.98
2023-03-02T14:31:27.271Z,10.32
2023-03-02T14:35:12.072Z,9.95
2023-03-02T14:39:00.205Z,10.32
2023-03-02T14:42:41.922Z,11.05
2023-03-02T14:46:23.739Z,10.30
2023-03-02T14:50:05.975Z,10.60
2023-03-02T14:53:49.714Z,10.27
2023-03-02T14:57:36.346Z,9.40
2023-03-02T15:01:19.181Z,9.32
2023-03-02T15:05:01.021Z,10.73
2023-03-02T15:08:42.787Z,9.45
2023-03-02T15:12:25.588Z,9.77
2023-03-02T15:16:12.361Z,9.18
2023-03-02T15:19:54.282Z,10.07
2023-03-02T15:23:36.149Z,9.27
2023-03-02T15:27:17.904Z,9.38
2023-03-02T15:31:07.463Z,9.43
2023-03-02T15:34:49.269Z,10.05
2023-03-02T15:38:31.015Z,9.50
2023-03-02T15:42:13.890Z,8.90
2023-03-02T15:45:56.941Z,8.93
2023-03-02T15:49:38.790Z,9.50
2023-03-02T15:53:20.480Z,8.98
2023-03-02T15:57:02.401Z,8.05
2023-03-02T16:00:44.650Z,8.10
2023-03-02T16:04:27.614Z,8.90
2023-03-02T16:08:09.393Z,7.32
2023-03-02T16:11:52.038Z,7.50
2023-03-02T16:15:40.086Z,7.50
2023-03-02T16:19:21.900Z,7.20
2023-03-02T16:23:06.296Z,7.88
2023-03-02T16:26:48.824Z,7.53
2023-03-02T16:30:31.121Z,7.45
2023-03-02T16:34:13.099Z,7.25
2023-03-02T16:37:55.103Z,6.43
2023-03-02T16:41:38.876Z,7.45
2023-03-02T16:45:22.111Z,6.68
2023-03-02T16:49:04.687Z,6.78
2023-03-02T16:52:46.562Z,6.85
2023-03-02T16:56:28.534Z,6.53
2023-03-02T17:00:13.154Z,6.03
2023-03-02T17:03:55.077Z,6.25
2023-03-02T17:07:36.954Z,6.38
2023-03-02T17:11:20.054Z,6.35
2023-03-02T17:15:01.851Z,6.35
2023-03-02T17:18:46.858Z,6.47
2023-03-02T17:22:28.690Z,6.53
2023-03-02T17:26:10.598Z,6.25
2023-03-02T17:29:52.913Z,12.05
2023-03-02T17:33:34.781Z,6.63
2023-03-02T17:37:17.579Z,6.80
2023-03-02T17:41:04.193Z,6.50
2023-03-02T17:44:45.899Z,5.82
2023-03-02T17:48:27.628Z,7.00
2023-03-02T17:52:09.371Z,8.75
2023-03-02T17:55:51.102Z,5.95
2023-03-02T17:59:32.886Z,6.35
2023-03-02T18:03:14.796Z,6.13
2023-03-02T18:06:56.636Z,6.40
2023-03-02T18:10:38.397Z,6.97
2023-03-02T18:14:21.028Z,6.75
2023-03-02T18:18:02.816Z,6.30
2023-03-02T18:21:45.387Z,6.55
2023-03-02T18:25:27.650Z,6.80
2023-03-02T18:29:09.379Z,6.47
2023-03-02T18:32:51.117Z,6.78
2023-03-02T18:36:32.850Z,6.97
2023-03-02T18:40:15.576Z,7.75
2023-03-02T18:43:57.278Z,8.20
2023-03-02T18:47:39.080Z,8.35
2023-03-02T18:51:22.775Z,7.05
2023-03-02T18:55:04.874Z,8.25
2023-03-02T18:58:46.813Z,9.52
2023-03-02T19:02:29.049Z,9.18
2023-03-02T19:06:10.799Z,10.82
2023-03-02T19:09:52.514Z,9.68
2023-03-02T19:13:34.459Z,10.25
2023-03-02T19:17:16.289Z,10.52
2023-03-02T19:20:58.109Z,11.10
2023-03-02T19:24:40.556Z,10.50
2023-03-02T19:28:22.420Z,9.23
2023-03-02T19:32:04.726Z,8.55
2023-03-02T19:35:46.777Z,7.20
2023-03-02T19:39:28.553Z,7.22
2023-03-02T19:43:10.366Z,6.45
2023-03-02T19:46:52.210Z,6.50
2023-03-02T19:50:34.421Z,6.18
2023-03-02T19:54:16.378Z,6.35
2023-03-02T19:58:02.073Z,5.75
2023-03-02T20:01:43.872Z,6.72
2023-03-02T20:05:27.408Z,6.30
2023-03-02T20:09:09.899Z,5.60
2023-03-02T20:12:51.863Z,6.95
2023-03-02T20:16:35.258Z,5.93
2023-03-02T20:20:17.109Z,5.47
2023-03-02T20:23:59.359Z,5.70
2023-03-02T20:27:41.218Z,5.35
2023-03-02T20:31:24.606Z,6.25
2023-03-02T20:35:06.441Z,5.07
2023-03-02T20:38:54.299Z,5.13
2023-03-02T20:42:36.194Z,5.15
2023-03-02T20:46:27.027Z,4.28
2023-03-02T20:50:11.428Z,3.95
2023-03-02T20:53:53.289Z,4.47
2023-03-02T20:57:35.100Z,4.15
2023-03-02T21:01:18.657Z,4.05
2023-03-02T21:05:00.702Z,3.90
2023-03-02T21:08:43.028Z,5.03
2023-03-02T21:12:24.795Z,3.70
2023-03-02T21:16:08.650Z,3.58
2023-03-02T21:19:50.578Z,3.50
2023-03-02T21:23:32.598Z,3.63
2023-03-02T21:27:14.400Z,3.85
2023-03-02T21:30:56.375Z,4.18
2023-03-02T21:34:38.566Z,3.85
2023-03-02T21:38:20.370Z,4.05
2023-03-02T21:42:02.406Z,4.85
2023-03-02T21:45:44.314Z,3.90
2023-03-02T21:49:26.103Z,4.10
2023-03-02T21:53:08.539Z,3.63
2023-03-02T21:56:50.364Z,3.95
2023-03-02T22:00:38.988Z,4.45
2023-03-02T22:04:20.974Z,4.20
2023-03-02T22:08:02.792Z,3.83
2023-03-02T22:11:45.211Z,3.83
2023-03-02T22:15:28.082Z,4.22
2023-03-02T22:19:27.610Z,4.15
2023-03-02T22:23:15.548Z,3.53
2023-03-02T22:27:13.564Z,4.18
2023-03-02T22:31:00.469Z,4.05
2023-03-02T22:34:44.248Z,4.20
2023-03-02T22:38:29.370Z,4.53
2023-03-02T22:42:24.980Z,5.68
2023-03-02T22:46:20.095Z,4.25
2023-03-02T22:50:23.007Z,4.00
2023-03-02T22:54:18.010Z,3.67
2023-03-02T22:58:17.929Z,4.05
2023-03-02T23:02:01.307Z,5.50
2023-03-02T23:05:43.388Z,4.15
2023-03-02T23:09:27.862Z,3.83
2023-03-02T23:13:14.892Z,4.57
2023-03-02T23:17:01.510Z,4.80
2023-03-02T23:20:43.372Z,3.97
2023-03-02T23:24:25.212Z,4.00
2023-03-02T23:28:06.985Z,3.67
2023-03-02T23:31:49.058Z,3.53
2023-03-02T23:35:31.476Z,3.90
2023-03-02T23:39:13.364Z,3.97
2023-03-02T23:42:55.887Z,4.78
2023-03-02T23:46:37.604Z,3.97
2023-03-02T23:50:19.657Z,4.25
2023-03-02T23:54:04.180Z,4.60
2023-03-02T23:57:46.435Z,4.53
